createdAt,value
2017-04-19T00:00:56.386Z,0
2017-04-19T00:01:56.372Z,0
2017-04-19T00:02:56.337Z,0
2017-04-19T00:03:56.309Z,0
2017-04-19T00:04:56.283Z,0
2017-04-19T00:05:56.264Z,0
2017-04-19T00:06:56.241Z,0
2017-04-19T00:07:56.230Z,0
2017-04-19T00:08:56.197Z,0
2017-04-19T00:09:55.872Z,0
2017-04-19T00:10:56.144Z,0
2017-04-19T00:11:56.120Z,0
2017-04-19T00:12:56.097Z,0
2017-04-19T00:13:56.080Z,0
2017-04-19T00:14:55.449Z,0
2017-04-19T00:15:55.425Z,0
2017-04-19T00:16:56.158Z,0
2017-04-19T00:17:55.976Z,0
2017-04-19T00:18:55.959Z,0
2017-04-19T00:19:55.929Z,0
2017-04-19T00:20:55.913Z,0
2017-04-19T00:21:55.583Z,0
2017-04-19T00:22:55.562Z,0
2017-04-19T00:23:55.534Z,0
2017-04-19T00:24:55.517Z,0
2017-04-19T00:25:55.491Z,0
2017-04-19T00:26:55.465Z,0
2017-04-19T00:27:55.440Z,0
2017-04-19T00:28:55.427Z,0
2017-04-19T00:29:55.694Z,0
2017-04-19T00:30:55.669Z,0
2017-04-19T00:31:55.652Z,0
2017-04-19T00:32:55.617Z,0
2017-04-19T00:33:55.598Z,0
2017-04-19T00:34:55.572Z,0
2017-04-19T00:35:55.250Z,0
2017-04-19T00:36:55.524Z,0
2017-04-19T00:37:55.496Z,0
2017-04-19T00:38:55.473Z,0
2017-04-19T00:39:55.473Z,0
2017-04-19T00:40:55.425Z,0
2017-04-19T00:41:55.398Z,0
2017-04-19T00:42:55.373Z,0
2017-04-19T00:43:54.749Z,0
2017-04-19T00:44:55.097Z,0
2017-04-19T00:45:55.301Z,0
2017-04-19T00:46:55.279Z,0
2017-04-19T00:47:55.257Z,0
2017-04-19T00:48:55.233Z,0
2017-04-19T00:49:55.206Z,0
2017-04-19T00:50:55.174Z,0
2017-04-19T00:51:55.157Z,0
2017-04-19T00:52:55.130Z,0
2017-04-19T00:53:55.105Z,0
2017-04-19T00:54:55.084Z,0
2017-04-19T00:55:55.050Z,0
2017-04-19T00:56:55.049Z,0
2017-04-19T00:57:55.012Z,0
2017-04-19T00:58:54.994Z,0
2017-04-19T00:59:54.963Z,0
2017-04-19T01:00:54.935Z,0
2017-04-19T01:01:54.912Z,0
2017-04-19T01:02:54.590Z,0
2017-04-19T01:03:54.562Z,0
2017-04-19T01:04:54.842Z,0
2017-04-19T01:05:54.813Z,0
2017-04-19T01:06:54.790Z,0
2017-04-19T01:07:54.765Z,0
2017-04-19T01:08:54.740Z,0
2017-04-19T01:09:54.720Z,0
2017-04-19T01:10:54.698Z,0
2017-04-19T01:11:54.686Z,0
2017-04-19T01:12:54.652Z,0
2017-04-19T01:13:54.326Z,0
2017-04-19T01:14:54.606Z,0
2017-04-19T01:15:54.270Z,0
2017-04-19T01:16:54.548Z,0
2017-04-19T01:17:54.531Z,0
2017-04-19T01:18:54.508Z,0
2017-04-19T01:19:54.485Z,0
2017-04-19T01:20:54.155Z,0
2017-04-19T01:21:54.435Z,0
2017-04-19T01:22:54.421Z,0
2017-04-19T01:23:54.392Z,0
2017-04-19T01:24:54.367Z,0
2017-04-19T01:25:54.037Z,0
2017-04-19T01:26:54.312Z,0
2017-04-19T01:27:54.293Z,0
2017-04-19T01:28:53.966Z,0
2017-04-19T01:29:53.977Z,0
2017-04-19T01:30:53.922Z,0
2017-04-19T01:31:53.897Z,0
2017-04-19T01:32:54.180Z,0
2017-04-19T01:33:54.159Z,0
2017-04-19T01:34:54.134Z,0
2017-04-19T01:35:54.204Z,0
2017-04-19T01:36:54.086Z,0
2017-04-19T01:37:54.051Z,0
2017-04-19T01:38:54.032Z,0
2017-04-19T01:39:54.009Z,0
2017-04-19T01:40:53.986Z,0
2017-04-19T01:41:53.957Z,0
2017-04-19T01:42:53.941Z,0
2017-04-19T01:43:53.920Z,0
2017-04-19T01:44:53.891Z,0
2017-04-19T01:45:53.864Z,0
2017-04-19T01:46:53.832Z,0
2017-04-19T01:47:53.516Z,0
2017-04-19T01:48:53.789Z,0
2017-04-19T01:49:53.765Z,0
2017-04-19T01:50:53.849Z,0
2017-04-19T01:51:53.711Z,0
2017-04-19T01:52:53.692Z,0
2017-04-19T01:53:53.677Z,0
2017-04-19T01:54:53.647Z,0
2017-04-19T01:55:53.623Z,0
2017-04-19T01:56:53.598Z,0
2017-04-19T01:57:53.570Z,0
2017-04-19T01:58:53.550Z,0
2017-04-19T01:59:53.222Z,0
2017-04-19T02:00:53.202Z,0
2017-04-19T02:01:53.173Z,0
2017-04-19T02:02:53.152Z,0
2017-04-19T02:03:53.422Z,0
2017-04-19T02:04:53.100Z,0
2017-04-19T02:05:53.075Z,0
2017-04-19T02:06:53.056Z,0
2017-04-19T02:07:53.029Z,0
2017-04-19T02:08:53.012Z,0
2017-04-19T02:09:53.280Z,0
2017-04-19T02:10:53.265Z,0
2017-04-19T02:11:52.935Z,0
2017-04-19T02:12:53.216Z,0
2017-04-19T02:13:53.196Z,0
2017-04-19T02:14:53.157Z,0
2017-04-19T02:15:53.138Z,0
2017-04-19T02:16:53.111Z,0
2017-04-19T02:17:53.092Z,0
2017-04-19T02:18:52.880Z,0
2017-04-19T02:19:53.039Z,0
2017-04-19T02:20:53.042Z,0
2017-04-19T02:21:52.993Z,0
2017-04-19T02:22:52.963Z,0
2017-04-19T02:23:52.945Z,0
2017-04-19T02:24:52.911Z,0
2017-04-19T02:25:52.886Z,0
2017-04-19T02:26:52.863Z,0
2017-04-19T02:27:52.864Z,0
2017-04-19T02:28:52.959Z,0
2017-04-19T02:29:52.487Z,0
2017-04-19T02:30:52.765Z,0
2017-04-19T02:31:52.740Z,0
2017-04-19T02:32:52.721Z,0
2017-04-19T02:33:52.697Z,0
2017-04-19T02:34:52.675Z,0
2017-04-19T02:35:52.640Z,0
2017-04-19T02:36:52.614Z,0
2017-04-19T02:37:52.588Z,0
2017-04-19T02:38:52.572Z,0
2017-04-19T02:39:52.550Z,0
2017-04-19T02:40:52.529Z,0
2017-04-19T02:41:52.486Z,0
2017-04-19T02:42:52.471Z,0
2017-04-19T02:43:52.439Z,0
2017-04-19T02:44:52.120Z,0
2017-04-19T02:45:52.404Z,0
2017-04-19T02:46:52.070Z,0
2017-04-19T02:47:52.339Z,0
2017-04-19T02:48:52.321Z,0
2017-04-19T02:49:52.300Z,0
2017-04-19T02:50:52.267Z,0
2017-04-19T02:51:52.237Z,0
2017-04-19T02:52:52.214Z,0
2017-04-19T02:53:52.194Z,0
2017-04-19T02:54:52.190Z,0
2017-04-19T02:55:52.412Z,0
2017-04-19T02:56:52.110Z,0
2017-04-19T02:57:52.092Z,0
2017-04-19T02:58:52.063Z,0
2017-04-19T02:59:52.054Z,0
2017-04-19T03:00:52.003Z,0
2017-04-19T03:01:51.990Z,0
2017-04-19T03:02:51.963Z,0
2017-04-19T03:03:51.332Z,0
2017-04-19T03:04:51.912Z,0
2017-04-19T03:05:51.881Z,0
2017-04-19T03:06:51.552Z,0
2017-04-19T03:07:51.528Z,0
2017-04-19T03:08:51.811Z,0
2017-04-19T03:09:51.784Z,0
2017-04-19T03:10:51.757Z,0
2017-04-19T03:11:51.730Z,0
2017-04-19T03:12:51.407Z,0
2017-04-19T03:13:51.380Z,0
2017-04-19T03:14:51.653Z,0
2017-04-19T03:15:51.632Z,0
2017-04-19T03:16:51.600Z,0
2017-04-19T03:17:51.583Z,0
2017-04-19T03:18:51.560Z,0
2017-04-19T03:19:51.526Z,0
2017-04-19T03:20:51.501Z,0
2017-04-19T03:21:51.477Z,0
2017-04-19T03:22:51.461Z,0
2017-04-19T03:23:51.146Z,0
2017-04-19T03:24:51.101Z,0
2017-04-19T03:25:51.381Z,0
2017-04-19T03:26:51.356Z,0
2017-04-19T03:27:51.031Z,0
2017-04-19T03:28:51.307Z,0
2017-04-19T03:29:51.282Z,0
2017-04-19T03:30:51.249Z,0
2017-04-19T03:31:51.345Z,0
2017-04-19T03:32:51.210Z,0
2017-04-19T03:33:50.881Z,0
2017-04-19T03:34:50.847Z,0
2017-04-19T03:35:51.126Z,0
2017-04-19T03:36:50.799Z,0
2017-04-19T03:37:51.078Z,0
2017-04-19T03:38:51.053Z,0
2017-04-19T03:39:51.032Z,0
2017-04-19T03:40:50.706Z,0
2017-04-19T03:41:50.976Z,0
2017-04-19T03:42:50.663Z,0
2017-04-19T03:43:50.634Z,0
2017-04-19T03:44:50.601Z,0
2017-04-19T03:45:50.888Z,0
2017-04-19T03:46:50.860Z,0
2017-04-19T03:47:50.834Z,0
2017-04-19T03:48:50.814Z,0
2017-04-19T03:49:50.863Z,0
2017-04-19T03:50:50.763Z,0
2017-04-19T03:51:50.746Z,0
2017-04-19T03:52:50.414Z,0
2017-04-19T03:53:50.687Z,0
2017-04-19T03:54:50.667Z,0
2017-04-19T03:55:50.634Z,0
2017-04-19T03:56:50.339Z,0
2017-04-19T03:57:50.593Z,0
2017-04-19T03:58:50.567Z,0
2017-04-19T03:59:50.542Z,0
2017-04-19T04:00:50.513Z,0
2017-04-19T04:01:50.696Z,0
2017-04-19T04:02:50.478Z,0
2017-04-19T04:03:50.453Z,0
2017-04-19T04:04:50.418Z,0
2017-04-19T04:05:50.393Z,0
2017-04-19T04:06:50.472Z,0
2017-04-19T04:07:50.041Z,0
2017-04-19T04:08:50.323Z,0
2017-04-19T04:09:50.306Z,0
2017-04-19T04:10:50.304Z,0
2017-04-19T04:11:50.255Z,0
2017-04-19T04:12:50.231Z,0
2017-04-19T04:13:50.200Z,0
2017-04-19T04:14:50.177Z,0
2017-04-19T04:15:50.160Z,0
2017-04-19T04:16:50.131Z,0
2017-04-19T04:17:50.102Z,0
2017-04-19T04:18:50.077Z,0
2017-04-19T04:19:50.051Z,0
2017-04-19T04:20:50.028Z,0
2017-04-19T04:21:49.999Z,0
2017-04-19T04:22:49.982Z,0
2017-04-19T04:23:49.960Z,0
2017-04-19T04:24:49.929Z,0
2017-04-19T04:25:49.902Z,0
2017-04-19T04:26:49.881Z,5
2017-04-19T04:27:49.854Z,5
2017-04-19T04:28:49.830Z,5
2017-04-19T04:29:49.809Z,5
2017-04-19T04:30:49.174Z,5
2017-04-19T04:31:49.752Z,5
2017-04-19T04:32:49.725Z,5
2017-04-19T04:33:49.704Z,5
2017-04-19T04:34:49.678Z,5
2017-04-19T04:35:49.652Z,10
2017-04-19T04:36:49.630Z,10
2017-04-19T04:37:49.602Z,10
2017-04-19T04:38:49.578Z,10
2017-04-19T04:39:49.559Z,10
2017-04-19T04:40:49.534Z,15
2017-04-19T04:41:49.212Z,15
2017-04-19T04:42:49.480Z,15
2017-04-19T04:43:49.238Z,20
2017-04-19T04:44:49.137Z,20
2017-04-19T04:45:49.106Z,20
2017-04-19T04:46:49.381Z,20
2017-04-19T04:47:49.361Z,20
2017-04-19T04:58:54.606Z,25
2017-04-19T04:59:49.065Z,25
2017-04-19T05:00:49.053Z,25
2017-04-19T05:01:49.029Z,25
2017-04-19T05:02:48.999Z,25
2017-04-19T05:03:48.369Z,25
2017-04-19T05:04:48.950Z,25
2017-04-19T05:05:48.927Z,25
2017-04-19T05:06:48.901Z,25
2017-04-19T05:07:48.880Z,30
2017-04-19T05:08:48.850Z,30
2017-04-19T05:09:48.828Z,30
2017-04-19T05:10:48.812Z,30
2017-04-19T05:11:48.998Z,30
2017-04-19T05:12:48.751Z,30
2017-04-19T05:13:48.530Z,30
2017-04-19T05:14:48.706Z,35
2017-04-19T05:15:48.378Z,35
2017-04-19T05:16:48.663Z,35
2017-04-19T05:17:48.679Z,35
2017-04-19T05:18:48.604Z,40
2017-04-19T05:19:48.583Z,40
2017-04-19T05:20:48.934Z,40
2017-04-19T05:21:48.567Z,40
2017-04-19T05:22:48.211Z,40
2017-04-19T05:23:48.218Z,40
2017-04-19T05:24:48.465Z,45
2017-04-19T05:25:48.142Z,45
2017-04-19T05:26:48.412Z,45
2017-04-19T05:27:48.384Z,45
2017-04-19T05:28:48.366Z,45
2017-04-19T05:29:48.453Z,45
2017-04-19T05:30:48.307Z,45
2017-04-19T05:31:47.978Z,50
2017-04-19T05:32:47.953Z,50
2017-04-19T05:33:48.231Z,55
2017-04-19T05:34:48.308Z,55
2017-04-19T05:35:47.881Z,55
2017-04-19T05:36:48.158Z,55
2017-04-19T05:37:48.129Z,55
2017-04-19T05:38:47.862Z,60
2017-04-19T05:39:48.079Z,60
2017-04-19T05:40:47.776Z,60
2017-04-19T05:41:48.027Z,60
2017-04-19T05:42:48.000Z,60
2017-04-19T05:43:47.976Z,60
2017-04-19T05:44:47.646Z,60
2017-04-19T05:45:47.924Z,60
2017-04-19T05:46:47.899Z,60
2017-04-19T05:47:47.569Z,60
2017-04-19T05:48:47.843Z,60
2017-04-19T05:49:47.822Z,65
2017-04-19T05:50:47.795Z,60
2017-04-19T05:51:47.766Z,65
2017-04-19T05:52:47.442Z,65
2017-04-19T05:53:47.716Z,65
2017-04-19T05:54:47.699Z,65
2017-04-19T05:55:47.668Z,65
2017-04-19T05:56:47.649Z,65
2017-04-19T05:57:47.613Z,70
2017-04-19T05:58:47.274Z,75
2017-04-19T05:59:47.578Z,75
2017-04-19T06:00:47.534Z,80
2017-04-19T06:01:47.517Z,85
2017-04-19T06:02:47.481Z,85
2017-04-19T06:03:47.454Z,90
2017-04-19T06:04:47.438Z,95
2017-04-19T06:05:47.612Z,100
2017-04-19T06:06:47.076Z,100
2017-04-19T06:07:47.051Z,105
2017-04-19T06:08:47.019Z,110
2017-04-19T06:09:47.006Z,120
2017-04-19T06:10:47.265Z,125
2017-04-19T06:11:47.247Z,130
2017-04-19T06:12:47.220Z,135
2017-04-19T06:13:47.194Z,140
2017-04-19T06:14:47.315Z,145
2017-04-19T06:15:47.147Z,150
2017-04-19T06:16:47.126Z,150
2017-04-19T06:17:47.089Z,155
2017-04-19T06:18:47.070Z,155
2017-04-19T06:19:47.047Z,155
2017-04-19T06:20:47.020Z,155
2017-04-19T06:21:46.989Z,155
2017-04-19T06:22:46.663Z,155
2017-04-19T06:23:46.941Z,160
2017-04-19T06:24:46.658Z,170
2017-04-19T06:25:46.684Z,170
2017-04-19T06:26:46.871Z,165
2017-04-19T06:27:46.841Z,165
2017-04-19T06:28:46.822Z,160
2017-04-19T06:29:46.791Z,160
2017-04-19T06:30:46.764Z,165
2017-04-19T06:31:46.741Z,175
2017-04-19T06:32:46.711Z,180
2017-04-19T06:33:46.690Z,195
2017-04-19T06:34:46.665Z,195
2017-04-19T06:35:46.639Z,200
2017-04-19T06:36:46.312Z,205
2017-04-19T06:37:46.289Z,210
2017-04-19T06:38:46.266Z,215
2017-04-19T06:39:46.546Z,225
2017-04-19T06:40:46.555Z,220
2017-04-19T06:41:46.493Z,220
2017-04-19T06:42:46.168Z,220
2017-04-19T06:43:46.446Z,225
2017-04-19T06:44:46.452Z,220
2017-04-19T06:45:46.390Z,220
2017-04-19T06:46:46.368Z,220
2017-04-19T06:47:46.359Z,220
2017-04-19T06:48:46.320Z,220
2017-04-19T06:49:46.297Z,220
2017-04-19T06:50:46.263Z,225
2017-04-19T06:51:46.358Z,220
2017-04-19T06:52:46.214Z,215
2017-04-19T06:53:46.197Z,215
2017-04-19T06:54:45.864Z,220
2017-04-19T06:55:46.151Z,220
2017-04-19T06:56:46.116Z,210
2017-04-19T06:57:46.098Z,200
2017-04-19T06:58:46.071Z,190
2017-04-19T06:59:46.153Z,180
2017-04-19T07:00:46.026Z,180
2017-04-19T07:01:45.998Z,185
2017-04-19T07:02:45.368Z,190
2017-04-19T07:03:45.345Z,190
2017-04-19T07:04:45.625Z,190
2017-04-19T07:05:45.895Z,195
2017-04-19T07:06:45.876Z,200
2017-04-19T07:07:45.852Z,205
2017-04-19T07:08:45.921Z,205
2017-04-19T07:09:45.801Z,210
2017-04-19T07:10:45.779Z,215
2017-04-19T07:11:45.454Z,230
2017-04-19T07:12:45.764Z,240
2017-04-19T07:13:45.705Z,255
2017-04-19T07:14:45.697Z,260
2017-04-19T07:15:45.360Z,260
2017-04-19T07:16:45.637Z,250
2017-04-19T07:17:45.868Z,235
2017-04-19T07:18:45.745Z,225
2017-04-19T07:19:45.560Z,225
2017-04-19T07:20:45.232Z,235
2017-04-19T07:21:45.521Z,240
2017-04-19T07:22:45.493Z,250
2017-04-19T07:23:45.457Z,245
2017-04-19T07:24:45.441Z,245
2017-04-19T07:25:45.419Z,240
2017-04-19T07:26:45.633Z,245
2017-04-19T07:27:45.060Z,245
2017-04-19T07:28:45.338Z,240
2017-04-19T07:29:45.318Z,245
2017-04-19T07:30:45.297Z,245
2017-04-19T07:31:45.275Z,245
2017-04-19T07:32:44.945Z,240
2017-04-19T07:33:45.227Z,230
2017-04-19T07:34:45.205Z,230
2017-04-19T07:35:45.224Z,230
2017-04-19T07:36:45.043Z,235
2017-04-19T07:37:45.133Z,240
2017-04-19T07:38:44.809Z,240
2017-04-19T07:39:45.100Z,235
2017-04-19T07:40:45.066Z,250
2017-04-19T07:41:45.045Z,280
2017-04-19T07:42:45.013Z,310
2017-04-19T07:43:44.991Z,335
2017-04-19T07:44:44.969Z,350
2017-04-19T07:45:44.735Z,350
2017-04-19T07:46:44.922Z,350
2017-04-19T07:47:44.894Z,355
2017-04-19T07:48:44.873Z,365
2017-04-19T07:49:44.554Z,365
2017-04-19T07:50:44.828Z,365
2017-04-19T07:51:44.804Z,375
2017-04-19T07:52:44.779Z,375
2017-04-19T07:53:44.458Z,370
2017-04-19T07:54:44.941Z,365
2017-04-19T07:55:44.405Z,370
2017-04-19T07:56:44.384Z,370
2017-04-19T07:57:44.663Z,370
2017-04-19T07:58:44.636Z,370
2017-04-19T07:59:44.617Z,375
2017-04-19T08:00:44.289Z,370
2017-04-19T08:01:44.268Z,360
2017-04-19T08:02:44.246Z,350
2017-04-19T08:03:44.519Z,350
2017-04-19T08:04:44.251Z,345
2017-04-19T08:05:44.479Z,345
2017-04-19T08:06:44.161Z,340
2017-04-19T08:07:44.432Z,335
2017-04-19T08:08:44.406Z,330
2017-04-19T08:09:44.087Z,330
2017-04-19T08:10:44.367Z,330
2017-04-19T08:11:44.344Z,325
2017-04-19T08:12:44.025Z,325
2017-04-19T08:13:44.297Z,325
2017-04-19T08:14:43.698Z,320
2017-04-19T08:15:44.250Z,325
2017-04-19T08:16:44.228Z,315
2017-04-19T08:17:44.202Z,310
2017-04-19T08:18:44.182Z,300
2017-04-19T08:19:44.165Z,290
2017-04-19T08:20:44.140Z,285
2017-04-19T08:21:43.815Z,290
2017-04-19T08:22:43.793Z,290
2017-04-19T08:23:44.075Z,300
2017-04-19T08:24:43.749Z,305
2017-04-19T08:25:43.739Z,320
2017-04-19T08:26:43.705Z,335
2017-04-19T08:27:43.380Z,340
2017-04-19T08:28:43.652Z,335
2017-04-19T08:29:43.675Z,335
2017-04-19T08:30:43.913Z,335
2017-04-19T08:31:43.584Z,345
2017-04-19T08:32:44.109Z,335
2017-04-19T08:33:43.236Z,330
2017-04-19T08:34:43.213Z,340
2017-04-19T08:35:43.790Z,335
2017-04-19T08:36:43.466Z,330
2017-04-19T08:37:43.746Z,330
2017-04-19T08:38:43.718Z,335
2017-04-19T08:39:43.698Z,340
2017-04-19T08:40:43.369Z,340
2017-04-19T08:41:43.460Z,335
2017-04-19T08:42:43.021Z,330
2017-04-19T08:43:43.602Z,320
2017-04-19T08:44:43.581Z,310
2017-04-19T08:45:43.553Z,310
2017-04-19T08:46:43.527Z,310
2017-04-19T08:47:43.509Z,315
2017-04-19T08:48:43.480Z,315
2017-04-19T08:49:43.156Z,315
2017-04-19T08:50:43.135Z,315
2017-04-19T08:51:43.430Z,305
2017-04-19T08:52:43.387Z,300
2017-04-19T08:53:43.368Z,295
2017-04-19T08:54:43.341Z,305
2017-04-19T08:55:43.016Z,315
2017-04-19T08:56:42.997Z,320
2017-04-19T08:57:42.971Z,320
2017-04-19T08:58:43.252Z,325
2017-04-19T08:59:43.227Z,330
2017-04-19T09:00:43.202Z,340
2017-04-19T09:01:43.362Z,335
2017-04-19T09:02:43.148Z,325
2017-04-19T09:03:42.529Z,320
2017-04-19T09:04:42.516Z,315
2017-04-19T09:05:42.474Z,315
2017-04-19T09:06:42.751Z,320
2017-04-19T09:07:42.762Z,325
2017-04-19T09:08:42.708Z,325
2017-04-19T09:09:42.976Z,320
2017-04-19T09:10:42.967Z,315
2017-04-19T09:11:42.335Z,315
2017-04-19T09:12:42.612Z,325
2017-04-19T09:13:42.886Z,325
2017-04-19T09:14:42.867Z,325
2017-04-19T09:15:42.866Z,325
2017-04-19T09:16:42.815Z,365
2017-04-19T09:17:42.794Z,400
2017-04-19T09:18:42.464Z,410
2017-04-19T09:19:42.741Z,435
2017-04-19T09:20:42.935Z,445
2017-04-19T09:21:42.700Z,440
2017-04-19T09:22:42.674Z,455
2017-04-19T09:23:42.345Z,450
2017-04-19T09:24:42.325Z,425
2017-04-19T09:25:42.613Z,395
2017-04-19T09:26:42.590Z,375
2017-04-19T09:27:42.252Z,360
2017-04-19T09:28:42.531Z,350
2017-04-19T09:29:42.547Z,350
2017-04-19T09:30:42.484Z,365
2017-04-19T09:31:42.153Z,380
2017-04-19T09:32:42.432Z,380
2017-04-19T09:33:42.108Z,365
2017-04-19T09:34:42.393Z,350
2017-04-19T09:35:42.076Z,350
2017-04-19T09:36:42.038Z,370
2017-04-19T09:37:42.324Z,390
2017-04-19T09:38:42.335Z,405
2017-04-19T09:39:42.452Z,415
2017-04-19T09:40:42.249Z,405
2017-04-19T09:41:42.239Z,395
2017-04-19T09:42:42.205Z,400
2017-04-19T09:43:42.183Z,415
2017-04-19T09:44:41.856Z,425
2017-04-19T09:45:42.131Z,430
2017-04-19T09:46:42.118Z,430
2017-04-19T09:47:41.873Z,420
2017-04-19T09:48:41.770Z,415
2017-04-19T09:49:42.042Z,415
2017-04-19T09:50:42.046Z,415
2017-04-19T09:51:41.702Z,415
2017-04-19T09:52:41.981Z,420
2017-04-19T09:53:41.653Z,420
2017-04-19T09:54:41.633Z,425
2017-04-19T09:55:41.926Z,430
2017-04-19T09:56:41.583Z,435
2017-04-19T09:57:41.584Z,435
2017-04-19T09:58:41.851Z,430
2017-04-19T09:59:41.224Z,430
2017-04-19T10:00:41.500Z,435
2017-04-19T10:01:41.799Z,435
2017-04-19T10:02:41.471Z,440
2017-04-19T10:03:41.475Z,435
2017-04-19T10:04:41.125Z,430
2017-04-19T10:05:41.414Z,430
2017-04-19T10:06:41.689Z,430
2017-04-19T10:07:41.348Z,425
2017-04-19T10:08:41.645Z,415
2017-04-19T10:09:41.645Z,415
2017-04-19T10:10:41.597Z,430
2017-04-19T10:11:41.270Z,450
2017-04-19T10:12:41.544Z,450
2017-04-19T10:13:41.220Z,440
2017-04-19T10:14:41.199Z,435
2017-04-19T10:15:40.571Z,445
2017-04-19T10:16:41.515Z,460
2017-04-19T10:17:41.442Z,480
2017-04-19T10:18:41.413Z,495
2017-04-19T10:19:41.389Z,520
2017-04-19T10:20:41.064Z,530
2017-04-19T10:21:41.041Z,530
2017-04-19T10:22:40.721Z,535
2017-04-19T10:23:41.301Z,540
2017-04-19T10:24:40.968Z,540
2017-04-19T10:25:40.682Z,540
2017-04-19T10:26:40.929Z,535
2017-04-19T10:27:40.905Z,520
2017-04-19T10:28:41.184Z,520
2017-04-19T10:29:40.859Z,525
2017-04-19T10:30:40.834Z,540
2017-04-19T10:31:40.516Z,560
2017-04-19T10:32:40.798Z,620
2017-04-19T10:33:40.473Z,605
2017-04-19T10:34:40.453Z,590
2017-04-19T10:35:41.244Z,570
2017-04-19T10:36:40.708Z,565
2017-04-19T10:37:40.985Z,610
2017-04-19T10:38:40.666Z,640
2017-04-19T10:39:40.647Z,645
2017-04-19T10:40:40.924Z,645
2017-04-19T10:41:40.299Z,625
2017-04-19T10:42:40.878Z,595
2017-04-19T10:43:40.556Z,570
2017-04-19T10:44:40.657Z,550
2017-04-19T10:45:40.514Z,540
2017-04-19T10:46:40.800Z,560
2017-04-19T10:47:40.180Z,555
2017-04-19T10:48:40.151Z,540
2017-04-19T10:49:40.129Z,520
2017-04-19T10:50:40.716Z,500
2017-04-19T10:51:40.390Z,490
2017-04-19T10:52:40.679Z,510
2017-04-19T10:53:40.047Z,500
2017-04-19T10:54:40.330Z,470
2017-04-19T10:55:40.612Z,445
2017-04-19T10:56:40.591Z,450
2017-04-19T10:57:40.572Z,465
2017-04-19T10:58:40.550Z,465
2017-04-19T10:59:40.531Z,450
2017-04-19T11:00:40.202Z,445
2017-04-19T11:01:40.484Z,425
2017-04-19T11:02:40.558Z,415
2017-04-19T11:03:40.147Z,420
2017-04-19T11:04:40.430Z,405
2017-04-19T11:05:40.401Z,410
2017-04-19T11:06:40.082Z,420
2017-04-19T11:07:40.063Z,425
2017-04-19T11:08:40.344Z,425
2017-04-19T11:09:40.328Z,425
2017-04-19T11:10:39.696Z,440
2017-04-19T11:11:39.979Z,460
2017-04-19T11:12:39.963Z,465
2017-04-19T11:13:40.240Z,460
2017-04-19T11:14:40.213Z,455
2017-04-19T11:15:39.598Z,455
2017-04-19T11:16:39.575Z,440
2017-04-19T11:17:39.858Z,450
2017-04-19T11:18:39.828Z,450
2017-04-19T11:19:40.124Z,445
2017-04-19T11:20:39.807Z,455
2017-04-19T11:21:40.075Z,475
2017-04-19T11:22:39.757Z,490
2017-04-19T11:23:39.732Z,490
2017-04-19T11:24:40.009Z,480
2017-04-19T11:25:39.689Z,460
2017-04-19T11:26:39.978Z,450
2017-04-19T11:27:39.662Z,435
2017-04-19T11:28:39.924Z,420
2017-04-19T11:29:39.609Z,420
2017-04-19T11:30:39.896Z,425
2017-04-19T11:31:40.088Z,430
2017-04-19T11:32:39.854Z,450
2017-04-19T11:33:39.818Z,480
2017-04-19T11:34:39.517Z,490
2017-04-19T11:35:39.488Z,485
2017-04-19T11:36:39.772Z,495
2017-04-19T11:37:39.135Z,480
2017-04-19T11:38:39.713Z,485
2017-04-19T11:39:39.389Z,510
2017-04-19T11:40:39.380Z,515
2017-04-19T11:41:39.354Z,515
2017-04-19T11:42:39.322Z,505
2017-04-19T11:43:39.299Z,495
2017-04-19T11:44:39.276Z,490
2017-04-19T11:45:39.557Z,485
2017-04-19T11:46:39.231Z,480
2017-04-19T11:47:38.903Z,475
2017-04-19T11:48:39.205Z,475
2017-04-19T11:49:39.177Z,475
2017-04-19T11:50:38.845Z,490
2017-04-19T11:51:39.448Z,515
2017-04-19T11:52:39.403Z,525
2017-04-19T11:53:39.369Z,535
2017-04-19T11:54:39.350Z,565
2017-04-19T11:55:39.328Z,620
2017-04-19T11:56:39.298Z,605
2017-04-19T11:57:39.271Z,590
2017-04-19T11:58:38.949Z,580
2017-04-19T11:59:39.231Z,605
2017-04-19T12:00:38.925Z,605
2017-04-19T12:01:39.182Z,565
2017-04-19T12:02:39.166Z,525
2017-04-19T12:03:38.832Z,510
2017-04-19T12:04:38.810Z,505
2017-04-19T12:05:39.086Z,515
2017-04-19T12:06:38.761Z,520
2017-04-19T12:07:38.744Z,515
2017-04-19T12:08:38.837Z,535
2017-04-19T12:09:38.993Z,595
2017-04-19T12:10:38.668Z,615
2017-04-19T12:11:38.644Z,595
2017-04-19T12:12:38.623Z,570
2017-04-19T12:13:38.895Z,615
2017-04-19T12:14:38.873Z,645
2017-04-19T12:15:38.550Z,665
2017-04-19T12:16:38.521Z,705
2017-04-19T12:17:38.749Z,640
2017-04-19T12:18:38.477Z,595
2017-04-19T12:19:38.459Z,630
2017-04-19T12:20:38.742Z,830
2017-04-19T12:21:38.719Z,770
2017-04-19T12:22:38.388Z,700
2017-04-19T12:23:38.670Z,675
2017-04-19T12:24:38.656Z,660
2017-04-19T12:25:38.632Z,645
2017-04-19T12:26:38.614Z,600
2017-04-19T12:27:38.288Z,570
2017-04-19T12:28:38.562Z,590
2017-04-19T12:29:38.554Z,625
2017-04-19T12:30:38.523Z,660
2017-04-19T12:31:38.518Z,670
2017-04-19T12:32:37.880Z,675
2017-04-19T12:33:38.160Z,695
2017-04-19T12:34:38.451Z,685
2017-04-19T12:35:38.119Z,680
2017-04-19T12:36:38.403Z,670
2017-04-19T12:37:38.382Z,640
2017-04-19T12:38:38.059Z,605
2017-04-19T12:39:38.042Z,565
2017-04-19T12:40:38.024Z,535
2017-04-19T12:41:38.305Z,530
2017-04-19T12:42:37.982Z,560
2017-04-19T12:43:38.253Z,580
2017-04-19T12:44:38.232Z,610
2017-04-19T12:45:38.221Z,660
2017-04-19T12:46:38.200Z,645
2017-04-19T12:47:37.569Z,600
2017-04-19T12:48:38.152Z,545
2017-04-19T12:49:37.831Z,510
2017-04-19T12:50:37.810Z,495
2017-04-19T12:51:37.787Z,480
2017-04-19T12:52:37.766Z,485
2017-04-19T12:53:38.048Z,500
2017-04-19T12:54:38.029Z,510
2017-04-19T12:55:37.857Z,520
2017-04-19T12:56:37.991Z,500
2017-04-19T12:57:37.663Z,480
2017-04-19T12:58:37.646Z,505
2017-04-19T12:59:37.316Z,515
2017-04-19T13:00:37.895Z,490
2017-04-19T13:01:37.572Z,475
2017-04-19T13:02:37.251Z,460
2017-04-19T13:03:37.225Z,455
2017-04-19T13:04:37.206Z,480
2017-04-19T13:05:37.787Z,505
2017-04-19T13:06:37.169Z,530
2017-04-19T13:07:37.739Z,530
2017-04-19T13:08:37.722Z,510
2017-04-19T13:09:37.409Z,485
2017-04-19T13:10:37.677Z,475
2017-04-19T13:11:37.646Z,470
2017-04-19T13:12:37.650Z,470
2017-04-19T13:13:37.837Z,495
2017-04-19T13:14:36.979Z,515
2017-04-19T13:15:37.565Z,515
2017-04-19T13:16:37.262Z,470
2017-04-19T13:17:37.218Z,435
2017-04-19T13:18:37.207Z,420
2017-04-19T13:19:37.176Z,480
2017-04-19T13:20:37.453Z,525
2017-04-19T13:21:37.154Z,510
2017-04-19T13:22:37.274Z,565
2017-04-19T13:23:37.081Z,520
2017-04-19T13:24:37.056Z,580
2017-04-19T13:25:36.436Z,595
2017-04-19T13:26:37.321Z,565
2017-04-19T13:27:37.312Z,695
2017-04-19T13:28:37.281Z,710
2017-04-19T13:29:37.254Z,625
2017-04-19T13:30:37.238Z,800
2017-04-19T13:31:36.921Z,875
2017-04-19T13:32:37.184Z,840
2017-04-19T13:33:37.164Z,655
2017-04-19T13:34:37.138Z,665
2017-04-19T13:35:37.119Z,870
2017-04-19T13:36:37.094Z,710
2017-04-19T13:37:36.773Z,650
2017-04-19T13:38:37.047Z,615
2017-04-19T13:39:37.028Z,600
2017-04-19T13:40:36.704Z,610
2017-04-19T13:41:37.052Z,610
2017-04-19T13:42:36.963Z,595
2017-04-19T13:43:36.631Z,565
2017-04-19T13:44:36.315Z,540
2017-04-19T13:45:36.891Z,530
2017-04-19T13:46:35.662Z,490
2017-04-19T13:47:36.843Z,485
2017-04-19T13:48:36.521Z,495
2017-04-19T13:49:36.502Z,500
2017-04-19T13:50:36.920Z,495
2017-04-19T13:51:36.753Z,545
2017-04-19T13:52:36.751Z,555
2017-04-19T13:53:36.712Z,535
2017-04-19T13:54:36.689Z,500
2017-04-19T13:55:36.672Z,470
2017-04-19T13:56:36.654Z,480
2017-04-19T13:57:36.624Z,510
2017-04-19T13:58:36.604Z,540
2017-04-19T13:59:36.578Z,545
2017-04-19T14:00:36.559Z,520
2017-04-19T14:01:36.538Z,530
2017-04-19T14:02:36.518Z,575
2017-04-19T14:03:36.497Z,585
2017-04-19T14:04:36.467Z,565
2017-04-19T14:05:36.447Z,565
2017-04-19T14:06:36.427Z,590
2017-04-19T14:07:36.421Z,595
2017-04-19T14:08:36.380Z,570
2017-04-19T14:09:36.351Z,555
2017-04-19T14:10:36.334Z,565
2017-04-19T14:11:36.309Z,565
2017-04-19T14:12:36.288Z,555
2017-04-19T14:13:35.962Z,550
2017-04-19T14:14:35.946Z,555
2017-04-19T14:15:35.613Z,565
2017-04-19T14:16:36.199Z,575
2017-04-19T14:17:36.175Z,535